sensor_id;sensor_type;location;lat;lon;timestamp;temperature;humidity
16273;DHT22;8244;50.044;9.006;2022-09-09T00:00:33;15.80;99.90
16273;DHT22;8244;50.044;9.006;2022-09-09T00:05:41;15.80;99.90
16273;DHT22;8244;50.044;9.006;2022-09-09T00:10:48;15.80;99.90
16273;DHT22;8244;50.044;9.006;2022-09-09T00:15:57;15.80;99.90
16273;DHT22;8244;50.044;9.006;2022-09-09T00:21:05;15.80;99.90
16273;DHT22;8244;50.044;9.006;2022-09-09T00:26:13;15.80;99.90
16273;DHT22;8244;50.044;9.006;2022-09-09T00:31:23;15.90;99.90
16273;DHT22;8244;50.044;9.006;2022-09-09T00:36:27;15.90;99.90
16273;DHT22;8244;50.044;9.006;2022-09-09T00:41:42;15.80;99.90
16273;DHT22;8244;50.044;9.006;2022-09-09T00:46:56;15.80;99.90
16273;DHT22;8244;50.044;9.006;2022-09-09T00:52:12;15.70;99.90
16273;DHT22;8244;50.044;9.006;2022-09-09T00:57:26;15.70;99.90
16273;DHT22;8244;50.044;9.006;2022-09-09T01:02:33;15.60;99.90
16273;DHT22;8244;50.044;9.006;2022-09-09T01:07:39;15.60;99.90
16273;DHT22;8244;50.044;9.006;2022-09-09T01:12:43;15.70;99.90
16273;DHT22;8244;50.044;9.006;2022-09-09T01:17:51;15.60;99.90
16273;DHT22;8244;50.044;9.006;2022-09-09T01:23:10;15.60;99.90
16273;DHT22;8244;50.044;9.006;2022-09-09T01:28:22;15.60;99.90
16273;DHT22;8244;50.044;9.006;2022-09-09T01:33:26;15.60;99.90
16273;DHT22;8244;50.044;9.006;2022-09-09T01:38:28;15.50;99.90
16273;DHT22;8244;50.044;9.006;2022-09-09T01:43:31;15.50;99.90
16273;DHT22;8244;50.044;9.006;2022-09-09T01:48:33;15.40;99.90
16273;DHT22;8244;50.044;9.006;2022-09-09T01:53:35;15.30;99.90
16273;DHT22;8244;50.044;9.006;2022-09-09T01:58:47;15.30;99.90
16273;DHT22;8244;50.044;9.006;2022-09-09T02:03:57;15.20;99.90
16273;DHT22;8244;50.044;9.006;2022-09-09T02:09:00;15.10;99.90
16273;DHT22;8244;50.044;9.006;2022-09-09T02:14:10;15.10;99.90
16273;DHT22;8244;50.044;9.006;2022-09-09T02:19:16;15.10;99.90
16273;DHT22;8244;50.044;9.006;2022-09-09T02:24:27;15.10;99.90
16273;DHT22;8244;50.044;9.006;2022-09-09T02:29:34;15.10;99.90
16273;DHT22;8244;50.044;9.006;2022-09-09T02:34:39;15.00;99.90
16273;DHT22;8244;50.044;9.006;2022-09-09T02:39:41;15.10;99.90
16273;DHT22;8244;50.044;9.006;2022-09-09T02:44:45;15.10;99.90
16273;DHT22;8244;50.044;9.006;2022-09-09T02:49:56;15.10;99.90
16273;DHT22;8244;50.044;9.006;2022-09-09T02:55:04;15.10;99.90
16273;DHT22;8244;50.044;9.006;2022-09-09T03:00:11;15.10;99.90
16273;DHT22;8244;50.044;9.006;2022-09-09T03:05:13;15.10;99.90
16273;DHT22;8244;50.044;9.006;2022-09-09T03:10:14;15.20;99.90
16273;DHT22;8244;50.044;9.006;2022-09-09T03:15:17;15.20;99.90
16273;DHT22;8244;50.044;9.006;2022-09-09T03:20:19;15.20;99.90
16273;DHT22;8244;50.044;9.006;2022-09-09T03:25:22;15.30;99.90
16273;DHT22;8244;50.044;9.006;2022-09-09T03:30:26;15.30;99.90
16273;DHT22;8244;50.044;9.006;2022-09-09T03:35:28;15.30;99.90
16273;DHT22;8244;50.044;9.006;2022-09-09T03:40:30;15.40;99.90
16273;DHT22;8244;50.044;9.006;2022-09-09T03:45:33;15.40;99.90
16273;DHT22;8244;50.044;9.006;2022-09-09T03:50:35;15.30;99.90
16273;DHT22;8244;50.044;9.006;2022-09-09T03:55:36;15.30;99.90
16273;DHT22;8244;50.044;9.006;2022-09-09T04:00:40;15.30;99.90
16273;DHT22;8244;50.044;9.006;2022-09-09T04:05:42;15.20;99.90
16273;DHT22;8244;50.044;9.006;2022-09-09T04:10:44;15.10;99.90
16273;DHT22;8244;50.044;9.006;2022-09-09T04:15:51;15.10;99.90
16273;DHT22;8244;50.044;9.006;2022-09-09T04:20:54;15.10;99.90
16273;DHT22;8244;50.044;9.006;2022-09-09T04:25:58;15.00;99.90
16273;DHT22;8244;50.044;9.006;2022-09-09T04:31:06;14.90;99.90
16273;DHT22;8244;50.044;9.006;2022-09-09T04:36:08;14.90;99.90
16273;DHT22;8244;50.044;9.006;2022-09-09T04:41:10;14.80;99.90
16273;DHT22;8244;50.044;9.006;2022-09-09T04:46:13;14.70;99.90
16273;DHT22;8244;50.044;9.006;2022-09-09T04:51:17;14.70;99.90
16273;DHT22;8244;50.044;9.006;2022-09-09T04:56:19;14.70;99.90
16273;DHT22;8244;50.044;9.006;2022-09-09T05:01:23;14.70;99.90
16273;DHT22;8244;50.044;9.006;2022-09-09T05:06:25;14.70;99.90
16273;DHT22;8244;50.044;9.006;2022-09-09T05:11:28;14.70;99.90
16273;DHT22;8244;50.044;9.006;2022-09-09T05:16:31;14.80;99.90
16273;DHT22;8244;50.044;9.006;2022-09-09T05:21:34;14.80;99.90
16273;DHT22;8244;50.044;9.006;2022-09-09T05:26:35;15.00;99.90
16273;DHT22;8244;50.044;9.006;2022-09-09T05:31:38;15.10;99.90
16273;DHT22;8244;50.044;9.006;2022-09-09T05:36:41;15.20;99.90
16273;DHT22;8244;50.044;9.006;2022-09-09T05:41:42;15.30;99.90
16273;DHT22;8244;50.044;9.006;2022-09-09T05:46:45;15.50;99.90
16273;DHT22;8244;50.044;9.006;2022-09-09T05:51:47;15.60;99.90
16273;DHT22;8244;50.044;9.006;2022-09-09T05:56:50;15.70;99.90
16273;DHT22;8244;50.044;9.006;2022-09-09T06:01:55;15.80;99.90
16273;DHT22;8244;50.044;9.006;2022-09-09T06:06:56;15.90;99.90
16273;DHT22;8244;50.044;9.006;2022-09-09T06:11:59;16.10;99.90
16273;DHT22;8244;50.044;9.006;2022-09-09T06:17:02;16.40;99.90
16273;DHT22;8244;50.044;9.006;2022-09-09T06:22:04;16.50;99.90
16273;DHT22;8244;50.044;9.006;2022-09-09T06:27:05;16.50;99.90
16273;DHT22;8244;50.044;9.006;2022-09-09T06:32:09;16.50;99.90
16273;DHT22;8244;50.044;9.006;2022-09-09T06:37:10;16.50;99.90
16273;DHT22;8244;50.044;9.006;2022-09-09T06:42:12;16.70;99.90
16273;DHT22;8244;50.044;9.006;2022-09-09T06:47:17;16.80;99.90
16273;DHT22;8244;50.044;9.006;2022-09-09T06:52:19;17.00;99.90
16273;DHT22;8244;50.044;9.006;2022-09-09T06:57:20;17.40;99.90
16273;DHT22;8244;50.044;9.006;2022-09-09T07:02:23;17.70;99.90
16273;DHT22;8244;50.044;9.006;2022-09-09T07:07:25;18.00;99.90
16273;DHT22;8244;50.044;9.006;2022-09-09T07:12:27;18.20;99.90
16273;DHT22;8244;50.044;9.006;2022-09-09T07:17:30;18.50;99.90
16273;DHT22;8244;50.044;9.006;2022-09-09T07:22:32;19.00;99.90
16273;DHT22;8244;50.044;9.006;2022-09-09T07:27:33;19.50;99.90
16273;DHT22;8244;50.044;9.006;2022-09-09T07:32:36;20.00;99.90
16273;DHT22;8244;50.044;9.006;2022-09-09T07:37:38;20.70;99.90
16273;DHT22;8244;50.044;9.006;2022-09-09T07:42:40;20.60;99.90
16273;DHT22;8244;50.044;9.006;2022-09-09T07:47:43;20.60;99.90
16273;DHT22;8244;50.044;9.006;2022-09-09T07:52:45;20.60;99.90
16273;DHT22;8244;50.044;9.006;2022-09-09T07:57:46;20.40;99.90
16273;DHT22;8244;50.044;9.006;2022-09-09T08:02:50;20.30;99.90
16273;DHT22;8244;50.044;9.006;2022-09-09T08:07:54;20.40;99.90
16273;DHT22;8244;50.044;9.006;2022-09-09T08:12:55;20.50;99.90
16273;DHT22;8244;50.044;9.006;2022-09-09T08:17:58;20.60;99.90
16273;DHT22;8244;50.044;9.006;2022-09-09T08:23:00;20.40;99.90
16273;DHT22;8244;50.044;9.006;2022-09-09T08:28:02;20.50;99.90
16273;DHT22;8244;50.044;9.006;2022-09-09T08:33:05;20.60;99.90
16273;DHT22;8244;50.044;9.006;2022-09-09T08:38:08;20.90;99.90
16273;DHT22;8244;50.044;9.006;2022-09-09T08:43:10;21.40;99.90
16273;DHT22;8244;50.044;9.006;2022-09-09T08:48:22;21.80;99.90
16273;DHT22;8244;50.044;9.006;2022-09-09T08:53:29;22.20;99.90
16273;DHT22;8244;50.044;9.006;2022-09-09T08:58:41;22.20;99.90
16273;DHT22;8244;50.044;9.006;2022-09-09T09:03:52;22.90;99.90
16273;DHT22;8244;50.044;9.006;2022-09-09T09:09:02;23.70;99.90
16273;DHT22;8244;50.044;9.006;2022-09-09T09:14:10;23.60;99.90
16273;DHT22;8244;50.044;9.006;2022-09-09T09:19:16;23.30;99.90
16273;DHT22;8244;50.044;9.006;2022-09-09T09:24:20;23.40;99.90
16273;DHT22;8244;50.044;9.006;2022-09-09T09:29:24;23.30;99.90
16273;DHT22;8244;50.044;9.006;2022-09-09T09:34:28;22.90;99.90
16273;DHT22;8244;50.044;9.006;2022-09-09T09:39:31;22.60;99.90
16273;DHT22;8244;50.044;9.006;2022-09-09T09:44:36;22.50;99.90
16273;DHT22;8244;50.044;9.006;2022-09-09T09:49:39;22.40;99.90
16273;DHT22;8244;50.044;9.006;2022-09-09T09:54:53;22.10;99.90
16273;DHT22;8244;50.044;9.006;2022-09-09T10:00:04;21.70;99.90
16273;DHT22;8244;50.044;9.006;2022-09-09T10:05:16;21.60;99.90
16273;DHT22;8244;50.044;9.006;2022-09-09T10:10:31;21.90;99.90
16273;DHT22;8244;50.044;9.006;2022-09-09T10:15:42;22.30;99.90
16273;DHT22;8244;50.044;9.006;2022-09-09T10:20:54;22.60;99.90
16273;DHT22;8244;50.044;9.006;2022-09-09T10:26:18;22.80;99.90
16273;DHT22;8244;50.044;9.006;2022-09-09T10:31:31;22.80;99.90
16273;DHT22;8244;50.044;9.006;2022-09-09T10:36:44;23.40;99.90
16273;DHT22;8244;50.044;9.006;2022-09-09T10:41:53;24.20;99.90
16273;DHT22;8244;50.044;9.006;2022-09-09T10:47:12;24.60;99.90
16273;DHT22;8244;50.044;9.006;2022-09-09T10:52:25;24.50;99.90
16273;DHT22;8244;50.044;9.006;2022-09-09T10:57:35;24.50;99.90
16273;DHT22;8244;50.044;9.006;2022-09-09T11:02:39;24.70;99.90
16273;DHT22;8244;50.044;9.006;2022-09-09T11:07:47;24.60;99.90
16273;DHT22;8244;50.044;9.006;2022-09-09T11:12:50;24.80;99.90
16273;DHT22;8244;50.044;9.006;2022-09-09T11:17:56;24.60;99.90
16273;DHT22;8244;50.044;9.006;2022-09-09T11:23:04;24.30;97.90
16273;DHT22;8244;50.044;9.006;2022-09-09T11:28:19;24.20;96.40
16273;DHT22;8244;50.044;9.006;2022-09-09T11:39:25;23.50;96.50
16273;DHT22;8244;50.044;9.006;2022-09-09T11:44:34;23.30;96.70
16273;DHT22;8244;50.044;9.006;2022-09-09T11:49:41;23.00;96.80
16273;DHT22;8244;50.044;9.006;2022-09-09T11:54:47;22.70;95.90
16273;DHT22;8244;50.044;9.006;2022-09-09T11:59:51;22.30;96.60
16273;DHT22;8244;50.044;9.006;2022-09-09T12:04:59;22.20;97.70
16273;DHT22;8244;50.044;9.006;2022-09-09T12:10:05;22.30;98.10
16273;DHT22;8244;50.044;9.006;2022-09-09T12:15:26;22.50;97.30
16273;DHT22;8244;50.044;9.006;2022-09-09T12:20:34;22.90;99.00
16273;DHT22;8244;50.044;9.006;2022-09-09T12:25:48;23.70;97.80
16273;DHT22;8244;50.044;9.006;2022-09-09T12:30:58;24.50;97.50
16273;DHT22;8244;50.044;9.006;2022-09-09T12:36:04;25.20;94.60
16273;DHT22;8244;50.044;9.006;2022-09-09T12:41:19;25.40;93.30
16273;DHT22;8244;50.044;9.006;2022-09-09T12:46:27;25.30;92.70
16273;DHT22;8244;50.044;9.006;2022-09-09T12:51:34;25.30;93.70
16273;DHT22;8244;50.044;9.006;2022-09-09T12:56:37;25.60;92.90
16273;DHT22;8244;50.044;9.006;2022-09-09T13:01:39;26.00;92.00
16273;DHT22;8244;50.044;9.006;2022-09-09T13:06:41;25.70;92.70
16273;DHT22;8244;50.044;9.006;2022-09-09T13:11:47;25.60;92.10
16273;DHT22;8244;50.044;9.006;2022-09-09T13:16:56;25.40;92.10
16273;DHT22;8244;50.044;9.006;2022-09-09T13:21:58;25.00;93.00
16273;DHT22;8244;50.044;9.006;2022-09-09T13:27:03;24.60;94.80
16273;DHT22;8244;50.044;9.006;2022-09-09T13:32:05;24.10;94.70
16273;DHT22;8244;50.044;9.006;2022-09-09T13:37:21;23.90;96.10
16273;DHT22;8244;50.044;9.006;2022-09-09T13:42:28;23.50;95.90
16273;DHT22;8244;50.044;9.006;2022-09-09T13:47:32;23.30;96.40
16273;DHT22;8244;50.044;9.006;2022-09-09T13:52:34;23.20;96.30
16273;DHT22;8244;50.044;9.006;2022-09-09T13:57:37;23.00;96.40
16273;DHT22;8244;50.044;9.006;2022-09-09T14:02:39;22.80;97.30
16273;DHT22;8244;50.044;9.006;2022-09-09T14:07:41;23.00;98.20
16273;DHT22;8244;50.044;9.006;2022-09-09T14:12:44;23.20;95.20
16273;DHT22;8244;50.044;9.006;2022-09-09T14:17:47;23.20;95.00
16273;DHT22;8244;50.044;9.006;2022-09-09T14:22:48;23.00;94.60
16273;DHT22;8244;50.044;9.006;2022-09-09T14:27:51;22.90;94.40
16273;DHT22;8244;50.044;9.006;2022-09-09T14:32:53;23.10;95.00
16273;DHT22;8244;50.044;9.006;2022-09-09T14:37:55;23.30;93.50
16273;DHT22;8244;50.044;9.006;2022-09-09T14:42:58;23.40;93.20
16273;DHT22;8244;50.044;9.006;2022-09-09T14:47:59;23.60;93.20
16273;DHT22;8244;50.044;9.006;2022-09-09T14:53:01;23.50;92.80
16273;DHT22;8244;50.044;9.006;2022-09-09T14:58:05;23.60;92.50
16273;DHT22;8244;50.044;9.006;2022-09-09T15:03:06;23.40;93.30
16273;DHT22;8244;50.044;9.006;2022-09-09T15:08:08;23.50;93.80
16273;DHT22;8244;50.044;9.006;2022-09-09T15:13:11;23.50;93.50
16273;DHT22;8244;50.044;9.006;2022-09-09T15:18:14;23.50;93.30
16273;DHT22;8244;50.044;9.006;2022-09-09T15:23:16;23.30;93.40
16273;DHT22;8244;50.044;9.006;2022-09-09T15:28:20;23.10;92.50
16273;DHT22;8244;50.044;9.006;2022-09-09T15:33:22;22.90;92.40
16273;DHT22;8244;50.044;9.006;2022-09-09T15:38:23;22.80;92.10
16273;DHT22;8244;50.044;9.006;2022-09-09T15:43:27;22.70;92.30
16273;DHT22;8244;50.044;9.006;2022-09-09T15:48:30;22.70;92.80
16273;DHT22;8244;50.044;9.006;2022-09-09T15:53:33;22.70;92.60
16273;DHT22;8244;50.044;9.006;2022-09-09T15:58:36;22.80;92.60
16273;DHT22;8244;50.044;9.006;2022-09-09T16:03:40;22.80;92.70
16273;DHT22;8244;50.044;9.006;2022-09-09T16:08:45;22.90;93.30
16273;DHT22;8244;50.044;9.006;2022-09-09T16:13:49;22.90;94.00
16273;DHT22;8244;50.044;9.006;2022-09-09T16:18:53;22.90;94.10
16273;DHT22;8244;50.044;9.006;2022-09-09T16:23:56;22.70;94.30
16273;DHT22;8244;50.044;9.006;2022-09-09T16:29:01;22.60;94.90
16273;DHT22;8244;50.044;9.006;2022-09-09T16:34:03;22.40;95.10
16273;DHT22;8244;50.044;9.006;2022-09-09T16:39:07;22.30;95.50
16273;DHT22;8244;50.044;9.006;2022-09-09T16:44:12;22.10;95.80
16273;DHT22;8244;50.044;9.006;2022-09-09T16:49:16;21.90;96.30
16273;DHT22;8244;50.044;9.006;2022-09-09T16:54:17;21.60;96.90
16273;DHT22;8244;50.044;9.006;2022-09-09T16:59:21;21.50;97.50
16273;DHT22;8244;50.044;9.006;2022-09-09T17:04:26;21.40;98.00
16273;DHT22;8244;50.044;9.006;2022-09-09T17:09:28;21.30;98.10
16273;DHT22;8244;50.044;9.006;2022-09-09T17:14:33;21.10;98.50
16273;DHT22;8244;50.044;9.006;2022-09-09T17:19:34;21.00;99.00
16273;DHT22;8244;50.044;9.006;2022-09-09T17:24:36;20.90;99.40
16273;DHT22;8244;50.044;9.006;2022-09-09T17:29:40;20.70;99.60
16273;DHT22;8244;50.044;9.006;2022-09-09T17:34:41;20.50;99.70
16273;DHT22;8244;50.044;9.006;2022-09-09T17:39:43;20.30;99.90
16273;DHT22;8244;50.044;9.006;2022-09-09T17:44:46;20.20;99.90
16273;DHT22;8244;50.044;9.006;2022-09-09T17:49:48;20.00;99.90
16273;DHT22;8244;50.044;9.006;2022-09-09T17:54:50;19.90;99.90
16273;DHT22;8244;50.044;9.006;2022-09-09T17:59:53;19.80;99.90
16273;DHT22;8244;50.044;9.006;2022-09-09T18:04:54;19.60;99.90
16273;DHT22;8244;50.044;9.006;2022-09-09T18:09:56;19.50;99.90
16273;DHT22;8244;50.044;9.006;2022-09-09T18:14:59;19.30;99.90
16273;DHT22;8244;50.044;9.006;2022-09-09T18:20:01;19.20;99.90
16273;DHT22;8244;50.044;9.006;2022-09-09T18:25:04;19.00;99.90
16273;DHT22;8244;50.044;9.006;2022-09-09T18:30:08;18.80;99.90
16273;DHT22;8244;50.044;9.006;2022-09-09T18:35:10;18.70;99.90
16273;DHT22;8244;50.044;9.006;2022-09-09T18:40:12;18.50;99.90
16273;DHT22;8244;50.044;9.006;2022-09-09T18:45:15;18.40;99.90
16273;DHT22;8244;50.044;9.006;2022-09-09T18:50:17;18.30;99.90
16273;DHT22;8244;50.044;9.006;2022-09-09T18:55:19;18.20;99.90
16273;DHT22;8244;50.044;9.006;2022-09-09T19:00:22;18.10;99.90
16273;DHT22;8244;50.044;9.006;2022-09-09T19:05:24;18.00;99.90
16273;DHT22;8244;50.044;9.006;2022-09-09T19:10:26;18.00;99.90
16273;DHT22;8244;50.044;9.006;2022-09-09T19:15:34;17.90;99.90
16273;DHT22;8244;50.044;9.006;2022-09-09T19:20:36;17.80;99.90
16273;DHT22;8244;50.044;9.006;2022-09-09T19:25:38;17.80;99.90
16273;DHT22;8244;50.044;9.006;2022-09-09T19:30:41;17.70;99.90
16273;DHT22;8244;50.044;9.006;2022-09-09T19:35:56;17.70;99.90
16273;DHT22;8244;50.044;9.006;2022-09-09T19:41:02;17.60;99.90
16273;DHT22;8244;50.044;9.006;2022-09-09T19:46:07;17.50;99.90
16273;DHT22;8244;50.044;9.006;2022-09-09T19:51:12;17.40;99.90
16273;DHT22;8244;50.044;9.006;2022-09-09T19:56:15;17.20;99.90
16273;DHT22;8244;50.044;9.006;2022-09-09T20:01:20;17.10;99.90
16273;DHT22;8244;50.044;9.006;2022-09-09T20:06:24;17.00;99.90
16273;DHT22;8244;50.044;9.006;2022-09-09T20:11:26;16.80;99.90
16273;DHT22;8244;50.044;9.006;2022-09-09T20:16:30;16.70;99.90
16273;DHT22;8244;50.044;9.006;2022-09-09T20:21:33;16.60;99.90
16273;DHT22;8244;50.044;9.006;2022-09-09T20:26:35;16.50;99.90
16273;DHT22;8244;50.044;9.006;2022-09-09T20:31:39;16.50;99.90
16273;DHT22;8244;50.044;9.006;2022-09-09T20:36:42;16.40;99.90
16273;DHT22;8244;50.044;9.006;2022-09-09T20:41:45;16.20;99.90
16273;DHT22;8244;50.044;9.006;2022-09-09T20:46:49;16.20;99.90
16273;DHT22;8244;50.044;9.006;2022-09-09T20:51:53;16.10;99.90
16273;DHT22;8244;50.044;9.006;2022-09-09T20:56:55;16.10;99.90
16273;DHT22;8244;50.044;9.006;2022-09-09T21:01:58;16.00;99.90
16273;DHT22;8244;50.044;9.006;2022-09-09T21:07:00;16.00;99.90
16273;DHT22;8244;50.044;9.006;2022-09-09T21:12:02;16.00;99.90
16273;DHT22;8244;50.044;9.006;2022-09-09T21:17:05;15.90;99.90
16273;DHT22;8244;50.044;9.006;2022-09-09T21:22:06;15.90;99.90
16273;DHT22;8244;50.044;9.006;2022-09-09T21:27:08;15.80;99.90
16273;DHT22;8244;50.044;9.006;2022-09-09T21:32:11;15.80;99.90
16273;DHT22;8244;50.044;9.006;2022-09-09T21:37:13;15.80;99.90
16273;DHT22;8244;50.044;9.006;2022-09-09T21:42:14;15.70;99.90
16273;DHT22;8244;50.044;9.006;2022-09-09T21:47:17;15.70;99.90
16273;DHT22;8244;50.044;9.006;2022-09-09T21:52:19;15.70;99.90
16273;DHT22;8244;50.044;9.006;2022-09-09T21:57:21;15.70;99.90
16273;DHT22;8244;50.044;9.006;2022-09-09T22:02:24;15.60;99.90
16273;DHT22;8244;50.044;9.006;2022-09-09T22:07:27;15.60;99.90
16273;DHT22;8244;50.044;9.006;2022-09-09T22:12:29;15.60;99.90
16273;DHT22;8244;50.044;9.006;2022-09-09T22:17:32;15.60;99.90
16273;DHT22;8244;50.044;9.006;2022-09-09T22:22:34;15.60;99.90
16273;DHT22;8244;50.044;9.006;2022-09-09T22:27:35;15.60;99.90
16273;DHT22;8244;50.044;9.006;2022-09-09T22:32:38;15.60;99.90
16273;DHT22;8244;50.044;9.006;2022-09-09T22:37:40;15.60;99.90
16273;DHT22;8244;50.044;9.006;2022-09-09T22:42:42;15.50;99.90
16273;DHT22;8244;50.044;9.006;2022-09-09T22:47:45;15.50;99.90
16273;DHT22;8244;50.044;9.006;2022-09-09T22:52:47;15.50;99.90
16273;DHT22;8244;50.044;9.006;2022-09-09T22:57:48;15.40;99.90
16273;DHT22;8244;50.044;9.006;2022-09-09T23:02:52;15.40;99.90
16273;DHT22;8244;50.044;9.006;2022-09-09T23:07:55;15.30;99.90
16273;DHT22;8244;50.044;9.006;2022-09-09T23:12:58;15.30;99.90
16273;DHT22;8244;50.044;9.006;2022-09-09T23:18:01;15.20;99.90
16273;DHT22;8244;50.044;9.006;2022-09-09T23:23:02;15.20;99.90
16273;DHT22;8244;50.044;9.006;2022-09-09T23:28:04;15.20;99.90
16273;DHT22;8244;50.044;9.006;2022-09-09T23:33:07;15.10;99.90
16273;DHT22;8244;50.044;9.006;2022-09-09T23:38:09;15.10;99.90
16273;DHT22;8244;50.044;9.006;2022-09-09T23:43:10;15.10;99.90
16273;DHT22;8244;50.044;9.006;2022-09-09T23:48:13;15.20;99.90
16273;DHT22;8244;50.044;9.006;2022-09-09T23:53:16;15.20;99.90
16273;DHT22;8244;50.044;9.006;2022-09-09T23:58:17;15.20;99.90
